createdAt,value
2022-11-24T00:02:11.070Z,9.15
2022-11-24T00:05:12.740Z,9.10
2022-11-24T00:08:14.911Z,10.18
2022-11-24T00:11:18.976Z,8.60
2022-11-24T00:14:21.033Z,9.40
2022-11-24T00:17:22.581Z,8.82
2022-11-24T00:20:24.109Z,10.20
2022-11-24T00:23:25.686Z,9.77
2022-11-24T00:26:32.744Z,8.38
2022-11-24T00:29:34.262Z,12.32
2022-11-24T00:32:35.802Z,8.25
2022-11-24T00:35:37.311Z,10.27
2022-11-24T00:38:38.903Z,8.60
2022-11-24T00:41:41.065Z,9.80
2022-11-24T00:44:42.601Z,8.80
2022-11-24T00:47:44.109Z,9.55
2022-11-24T00:50:54.677Z,7.57
2022-11-24T00:53:57.737Z,8.80
2022-11-24T00:56:59.262Z,8.95
2022-11-24T01:00:00.825Z,8.32
2022-11-24T01:03:02.428Z,8.23
2022-11-24T01:06:15.373Z,8.53
2022-11-24T01:09:16.930Z,8.73
2022-11-24T01:12:18.503Z,9.25
2022-11-24T01:15:20.187Z,8.80
2022-11-24T01:18:21.741Z,9.55
2022-11-24T01:21:23.610Z,7.22
2022-11-24T01:24:25.212Z,7.75
2022-11-24T01:27:26.854Z,8.30
2022-11-24T01:30:28.442Z,10.30
2022-11-24T01:33:30.306Z,7.22
2022-11-24T01:36:31.817Z,8.10
2022-11-24T01:39:33.349Z,7.38
2022-11-24T01:42:49.362Z,7.53
2022-11-24T01:45:51.006Z,9.37
2022-11-24T01:49:13.301Z,6.10
2022-11-24T01:52:22.419Z,7.13
2022-11-24T01:55:30.073Z,7.35
2022-11-24T01:58:33.964Z,6.75
2022-11-24T02:01:35.552Z,8.00
2022-11-24T02:04:38.275Z,8.13
2022-11-24T02:07:39.932Z,8.37
2022-11-24T02:10:42.704Z,8.27
2022-11-24T02:13:46.258Z,7.53
2022-11-24T02:16:52.976Z,6.97
2022-11-24T02:19:57.748Z,7.30
2022-11-24T02:23:17.129Z,7.28
2022-11-24T02:26:43.293Z,7.30
2022-11-24T02:29:44.944Z,6.53
2022-11-24T02:32:46.505Z,9.20
2022-11-24T02:35:48.069Z,6.00
2022-11-24T02:38:49.632Z,6.90
2022-11-24T02:41:58.858Z,5.55
2022-11-24T02:45:01.653Z,7.20
2022-11-24T02:48:03.227Z,7.60
2022-11-24T02:51:05.439Z,6.53
2022-11-24T02:54:06.996Z,7.65
2022-11-24T02:57:08.859Z,6.75
2022-11-24T03:00:10.854Z,5.93
2022-11-24T03:03:12.598Z,5.32
2022-11-24T03:06:14.322Z,7.00
2022-11-24T03:09:16.076Z,4.93
2022-11-24T03:12:17.685Z,6.03
2022-11-24T03:15:19.221Z,8.80
2022-11-24T03:18:20.785Z,6.00
2022-11-24T03:21:22.368Z,5.43
2022-11-24T03:24:23.885Z,6.13
2022-11-24T03:27:26.290Z,6.90
2022-11-24T03:30:28.152Z,5.03
2022-11-24T03:33:29.819Z,5.70
2022-11-24T03:36:31.354Z,6.65
2022-11-24T03:39:32.895Z,5.03
2022-11-24T03:42:34.461Z,6.90
2022-11-24T03:45:45.934Z,5.53
2022-11-24T03:48:47.994Z,7.37
2022-11-24T03:51:50.148Z,7.20
2022-11-24T03:54:51.664Z,6.38
2022-11-24T03:57:53.275Z,5.95
2022-11-24T04:00:55.972Z,6.90
2022-11-24T04:03:57.505Z,4.50
2022-11-24T04:06:59.014Z,4.55
2022-11-24T04:10:00.613Z,5.83
2022-11-24T04:13:02.944Z,4.00
2022-11-24T04:16:06.294Z,3.67
2022-11-24T04:19:07.874Z,5.53
2022-11-24T04:22:09.437Z,4.95
2022-11-24T04:25:11.607Z,6.13
2022-11-24T04:28:13.168Z,7.10
2022-11-24T04:31:14.825Z,4.93
2022-11-24T04:34:16.470Z,4.57
2022-11-24T04:37:18.014Z,4.68
2022-11-24T04:40:19.951Z,4.63
2022-11-24T04:43:22.016Z,5.38
2022-11-24T04:46:23.576Z,6.25
2022-11-24T04:49:25.146Z,5.07
2022-11-24T04:52:26.697Z,5.57
2022-11-24T04:55:28.252Z,5.32
2022-11-24T04:58:29.768Z,5.97
2022-11-24T05:01:32.004Z,6.60
2022-11-24T05:04:33.882Z,5.00
2022-11-24T05:07:35.844Z,6.97
2022-11-24T05:10:37.445Z,9.07
2022-11-24T05:13:39.025Z,7.30
2022-11-24T05:16:40.673Z,7.90
2022-11-24T05:19:42.274Z,8.83
2022-11-24T05:22:44.413Z,8.15
2022-11-24T05:25:47.825Z,6.65
2022-11-24T05:28:49.693Z,7.70
2022-11-24T05:31:51.400Z,7.95
2022-11-24T05:34:54.117Z,6.00
2022-11-24T05:37:55.695Z,7.93
2022-11-24T05:41:05.089Z,8.57
2022-11-24T05:44:06.736Z,6.13
2022-11-24T05:47:08.286Z,6.78
2022-11-24T05:50:12.896Z,6.97
2022-11-24T05:53:14.495Z,9.95
2022-11-24T05:56:16.011Z,13.75
2022-11-24T05:59:17.532Z,12.15
2022-11-24T06:02:19.341Z,10.25
2022-11-24T06:05:21.011Z,10.90
2022-11-24T06:08:25.616Z,10.43
2022-11-24T06:11:31.195Z,8.17
2022-11-24T06:14:33.230Z,9.65
2022-11-24T06:17:35.216Z,11.23
2022-11-24T06:20:36.805Z,9.20
2022-11-24T06:23:38.754Z,9.80
2022-11-24T06:26:40.852Z,8.70
2022-11-24T06:29:42.479Z,12.75
2022-11-24T06:32:49.427Z,6.82
2022-11-24T06:35:51.636Z,9.80
2022-11-24T06:38:53.784Z,8.65
2022-11-24T06:41:55.312Z,8.50
2022-11-24T06:44:56.850Z,11.93
2022-11-24T06:47:58.422Z,10.98
2022-11-24T06:51:04.926Z,12.50
2022-11-24T06:54:07.581Z,8.73
2022-11-24T06:57:09.113Z,6.60
2022-11-24T07:00:11.110Z,11.52
2022-11-24T07:03:16.365Z,12.52
2022-11-24T07:06:19.307Z,6.20
2022-11-24T07:09:20.891Z,8.60
2022-11-24T07:12:24.193Z,12.77
2022-11-24T07:15:26.121Z,9.23
2022-11-24T07:18:27.882Z,6.75
2022-11-24T07:21:30.805Z,9.90
2022-11-24T07:24:32.573Z,7.22
2022-11-24T07:27:34.421Z,6.95
2022-11-24T07:30:36.018Z,7.40
2022-11-24T07:33:38.048Z,8.05
2022-11-24T07:36:39.549Z,8.15
2022-11-24T07:39:41.059Z,9.25
2022-11-24T07:42:42.582Z,8.70
2022-11-24T07:45:44.195Z,5.90
2022-11-24T07:48:46.437Z,4.55
2022-11-24T07:51:48.101Z,8.53
2022-11-24T07:54:49.634Z,6.93
2022-11-24T07:57:51.153Z,5.40
2022-11-24T08:00:52.690Z,9.60
2022-11-24T08:03:54.337Z,7.32
2022-11-24T08:06:55.905Z,8.82
2022-11-24T08:09:57.453Z,7.63
2022-11-24T08:13:02.091Z,8.50
2022-11-24T08:16:08.557Z,8.50
2022-11-24T08:19:11.899Z,7.75
2022-11-24T08:22:13.439Z,9.87
2022-11-24T08:25:15.345Z,8.25
2022-11-24T08:28:17.004Z,9.30
2022-11-24T08:31:19.092Z,11.90
2022-11-24T08:34:20.650Z,8.52
2022-11-24T08:37:22.160Z,9.05
2022-11-24T08:40:23.768Z,6.72
2022-11-24T08:43:25.333Z,8.57
2022-11-24T08:46:27.008Z,6.22
2022-11-24T08:49:28.745Z,6.97
2022-11-24T08:52:30.324Z,7.70
2022-11-24T08:55:32.003Z,5.68
2022-11-24T08:58:34.070Z,8.65
2022-11-24T09:01:35.744Z,5.68
2022-11-24T09:04:38.332Z,7.55
2022-11-24T09:07:40.076Z,7.97
2022-11-24T09:10:41.816Z,12.65
2022-11-24T09:13:44.039Z,7.70
2022-11-24T09:16:45.593Z,8.10
2022-11-24T09:19:47.173Z,7.95
2022-11-24T09:22:48.901Z,5.93
2022-11-24T09:25:50.423Z,8.82
2022-11-24T09:28:56.619Z,8.18
2022-11-24T09:32:03.456Z,5.95
2022-11-24T09:35:08.238Z,6.90
2022-11-24T09:38:10.323Z,5.95
2022-11-24T09:41:14.750Z,8.50
2022-11-24T09:44:19.372Z,7.67
2022-11-24T09:47:34.429Z,5.57
2022-11-24T09:50:38.089Z,7.70
2022-11-24T09:53:48.340Z,4.73
2022-11-24T09:56:51.294Z,5.03
2022-11-24T09:59:55.237Z,7.10
2022-11-24T10:02:57.601Z,4.72
2022-11-24T10:06:02.366Z,5.35
2022-11-24T10:09:03.919Z,6.38
2022-11-24T10:12:23.768Z,5.63
2022-11-24T10:15:37.875Z,7.23
2022-11-24T10:19:05.012Z,5.13
2022-11-24T10:22:28.285Z,4.88
2022-11-24T10:26:07.853Z,4.33
2022-11-24T10:29:12.345Z,5.30
2022-11-24T10:32:35.328Z,5.85
2022-11-24T10:36:03.608Z,2.25
2022-11-24T10:39:16.309Z,3.63
2022-11-24T10:42:26.544Z,6.72
2022-11-24T10:45:29.254Z,3.85
2022-11-24T10:48:40.352Z,4.60
2022-11-24T10:52:14.081Z,4.72
2022-11-24T10:55:15.877Z,5.00
2022-11-24T10:58:17.491Z,7.87
2022-11-24T11:01:32.242Z,6.03
2022-11-24T11:04:35.538Z,7.32
2022-11-24T11:07:37.105Z,6.47
2022-11-24T11:10:38.712Z,7.85
2022-11-24T11:14:01.586Z,4.00
2022-11-24T11:17:28.736Z,6.63
2022-11-24T11:20:33.009Z,5.87
2022-11-24T11:23:36.075Z,5.35
2022-11-24T11:26:38.199Z,5.20
2022-11-24T11:36:23.339Z,6.90
2022-11-24T11:39:45.320Z,5.07
2022-11-24T11:43:03.381Z,4.20
2022-11-24T11:46:12.776Z,5.30
2022-11-24T11:49:14.746Z,4.75
2022-11-24T11:52:49.658Z,6.00
2022-11-24T11:56:22.740Z,5.80
2022-11-24T11:59:49.329Z,4.03
2022-11-24T12:03:10.826Z,4.13
2022-11-24T12:06:27.418Z,4.53
2022-11-24T12:10:01.628Z,4.47
2022-11-24T12:13:21.413Z,3.33
2022-11-24T12:16:42.336Z,4.05
2022-11-24T12:19:50.032Z,4.40
2022-11-24T12:23:29.375Z,3.85
2022-11-24T12:26:54.898Z,4.17
2022-11-24T12:30:14.508Z,3.03
2022-11-24T12:33:35.182Z,4.25
2022-11-24T12:36:50.276Z,4.20
2022-11-24T12:40:09.897Z,3.40
2022-11-24T12:43:39.507Z,3.50
2022-11-24T12:46:59.160Z,4.10
2022-11-24T12:50:15.862Z,5.97
2022-11-24T12:53:26.193Z,6.15
2022-11-24T12:56:38.187Z,4.70
2022-11-24T12:59:52.174Z,6.17
2022-11-24T13:03:05.846Z,4.22
2022-11-24T13:06:12.455Z,4.85
2022-11-24T13:09:14.369Z,8.10
2022-11-24T13:12:16.197Z,6.97
2022-11-24T13:15:43.465Z,5.97
2022-11-24T13:19:07.175Z,6.30
2022-11-24T13:22:09.250Z,6.35
2022-11-24T13:25:16.042Z,5.90
2022-11-24T13:29:18.220Z,5.05
2022-11-24T13:32:46.796Z,6.13
2022-11-24T13:36:04.176Z,5.95
2022-11-24T13:39:20.324Z,5.53
2022-11-24T13:42:41.527Z,5.00
2022-11-24T13:45:45.235Z,6.70
2022-11-24T13:48:47.001Z,5.20
2022-11-24T13:51:48.548Z,6.50
2022-11-24T13:54:50.363Z,6.00
2022-11-24T13:57:56.717Z,6.22
2022-11-24T14:01:01.818Z,8.20
2022-11-24T14:04:33.979Z,4.37
2022-11-24T14:07:35.737Z,6.25
2022-11-24T14:10:40.639Z,5.70
2022-11-24T14:13:42.210Z,6.97
2022-11-24T14:16:43.764Z,6.20
2022-11-24T14:19:48.593Z,6.53
2022-11-24T14:22:50.551Z,7.88
2022-11-24T14:25:52.826Z,7.18
2022-11-24T14:29:02.502Z,4.82
2022-11-24T14:32:04.862Z,6.93
2022-11-24T14:35:27.875Z,9.47
2022-11-24T14:38:29.594Z,6.20
2022-11-24T14:41:33.217Z,7.18
2022-11-24T14:44:58.681Z,7.93
2022-11-24T14:48:00.306Z,7.00
2022-11-24T14:51:15.480Z,6.78
2022-11-24T14:54:20.189Z,6.90
2022-11-24T14:57:41.982Z,7.85
2022-11-24T15:00:43.633Z,8.18
2022-11-24T15:03:45.763Z,7.10
2022-11-24T15:07:00.463Z,7.33
2022-11-24T15:10:04.400Z,6.50
2022-11-24T15:13:18.036Z,8.05
2022-11-24T15:16:22.345Z,8.20
2022-11-24T15:19:28.325Z,10.35
2022-11-24T15:22:40.098Z,7.53
2022-11-24T15:25:42.072Z,9.23
2022-11-24T15:28:46.727Z,11.05
2022-11-24T15:31:52.593Z,13.38
2022-11-24T15:34:54.592Z,9.10
2022-11-24T15:37:56.142Z,11.13
2022-11-24T15:41:01.678Z,22.52
2022-11-24T15:44:03.328Z,21.05
2022-11-24T15:47:04.915Z,21.23
2022-11-24T15:50:07.487Z,22.65
2022-11-24T15:53:37.751Z,27.20
2022-11-24T15:56:41.856Z,20.73
2022-11-24T15:59:43.407Z,13.68
2022-11-24T16:02:45.238Z,11.77
2022-11-24T16:05:51.110Z,11.15
2022-11-24T16:08:53.525Z,10.57
2022-11-24T16:11:55.040Z,11.70
2022-11-24T16:14:56.600Z,14.50
2022-11-24T16:17:58.150Z,14.20
2022-11-24T16:20:59.690Z,17.15
2022-11-24T16:24:01.262Z,18.80
2022-11-24T16:27:02.769Z,16.98
2022-11-24T16:30:05.920Z,15.75
2022-11-24T16:33:07.502Z,22.88
2022-11-24T16:36:09.261Z,17.70
2022-11-24T16:39:10.845Z,29.33
2022-11-24T16:42:12.405Z,32.90
2022-11-24T16:45:14.109Z,51.15
2022-11-24T16:48:15.641Z,59.83
2022-11-24T16:51:19.355Z,33.42
2022-11-24T16:54:21.068Z,48.72
2022-11-24T16:57:22.715Z,35.10
2022-11-24T17:00:24.389Z,86.88
2022-11-24T17:03:25.926Z,38.13
2022-11-24T17:06:27.711Z,28.42
2022-11-24T17:09:29.251Z,21.40
2022-11-24T17:12:30.789Z,15.25
2022-11-24T17:15:36.564Z,12.50
2022-11-24T17:18:41.654Z,14.07
2022-11-24T17:21:43.191Z,15.38
2022-11-24T17:24:44.682Z,18.67
2022-11-24T17:27:46.156Z,17.60
2022-11-24T17:30:47.648Z,17.77
2022-11-24T17:33:50.263Z,21.40
2022-11-24T17:36:51.755Z,18.05
2022-11-24T17:40:20.268Z,19.17
2022-11-24T17:43:14.776Z,14.50
2022-11-24T17:46:16.570Z,17.40
2022-11-24T17:49:18.380Z,18.97
2022-11-24T17:52:21.394Z,19.27
2022-11-24T17:55:23.301Z,26.88
2022-11-24T17:58:27.252Z,15.18
2022-11-24T18:01:30.202Z,14.63
2022-11-24T18:04:31.848Z,15.48
2022-11-24T18:07:36.602Z,15.75
2022-11-24T18:10:38.828Z,17.07
2022-11-24T18:13:56.699Z,19.77
2022-11-24T18:17:01.568Z,19.33
2022-11-24T18:20:03.267Z,23.47
2022-11-24T18:23:06.071Z,27.60
2022-11-24T18:26:10.061Z,42.50
2022-11-24T18:29:11.848Z,25.23
2022-11-24T18:32:13.534Z,19.25
2022-11-24T18:35:15.161Z,18.08
2022-11-24T18:38:16.736Z,15.18
2022-11-24T18:41:18.514Z,23.03
2022-11-24T18:44:20.147Z,15.13
2022-11-24T18:47:22.157Z,22.45
2022-11-24T18:50:23.747Z,21.57
2022-11-24T18:53:26.855Z,17.83
2022-11-24T18:56:29.124Z,13.45
2022-11-24T18:59:30.645Z,14.18
2022-11-24T19:02:32.376Z,13.52
2022-11-24T19:05:34.620Z,14.38
2022-11-24T19:08:36.240Z,15.05
2022-11-24T19:11:40.044Z,15.33
2022-11-24T19:14:41.595Z,16.70
2022-11-24T19:17:47.070Z,20.42
2022-11-24T19:20:48.914Z,20.43
2022-11-24T19:23:50.588Z,18.90
2022-11-24T19:26:52.289Z,20.17
2022-11-24T19:29:54.946Z,20.55
2022-11-24T19:32:57.542Z,20.02
2022-11-24T19:36:07.877Z,19.20
2022-11-24T19:39:16.472Z,21.10
2022-11-24T19:42:18.048Z,19.03
2022-11-24T19:45:19.588Z,21.90
2022-11-24T19:48:21.112Z,28.20
2022-11-24T19:51:25.482Z,24.37
2022-11-24T19:54:27.135Z,20.73
2022-11-24T19:57:28.877Z,21.88
2022-11-24T20:00:32.087Z,18.08
2022-11-24T20:03:34.468Z,16.27
2022-11-24T20:06:40.363Z,18.50
2022-11-24T20:09:42.007Z,28.95
2022-11-24T20:12:43.519Z,34.27
2022-11-24T20:15:45.405Z,23.10
2022-11-24T20:18:47.717Z,20.13
2022-11-24T20:21:49.928Z,20.63
2022-11-24T20:24:51.478Z,17.25
2022-11-24T20:27:53.129Z,19.83
2022-11-24T20:30:54.650Z,23.23
2022-11-24T20:33:56.932Z,20.00
2022-11-24T20:36:58.487Z,24.20
2022-11-24T20:40:02.289Z,24.02
2022-11-24T20:43:03.820Z,22.57
2022-11-24T20:46:08.005Z,21.08
2022-11-24T20:49:13.131Z,18.52
2022-11-24T20:52:14.697Z,22.83
2022-11-24T20:55:16.320Z,17.17
2022-11-24T20:58:17.990Z,18.40
2022-11-24T21:01:25.582Z,19.85
2022-11-24T21:04:27.339Z,18.65
2022-11-24T21:07:28.935Z,18.42
2022-11-24T21:10:30.492Z,19.42
2022-11-24T21:13:34.251Z,17.07
2022-11-24T21:16:37.952Z,17.67
2022-11-24T21:19:39.511Z,18.02
2022-11-24T21:22:41.028Z,14.80
2022-11-24T21:25:42.986Z,19.33
2022-11-24T21:28:46.126Z,17.30
2022-11-24T21:31:47.796Z,15.60
2022-11-24T21:34:49.340Z,14.70
2022-11-24T21:37:50.983Z,16.70
2022-11-24T21:40:52.525Z,15.77
2022-11-24T21:43:58.068Z,17.47
2022-11-24T21:46:59.575Z,21.25
2022-11-24T21:50:01.110Z,21.17
2022-11-24T21:53:03.716Z,24.37
2022-11-24T21:56:09.758Z,18.85
2022-11-24T21:59:11.312Z,19.15
2022-11-24T22:02:13.379Z,22.15
2022-11-24T22:05:15.102Z,21.52
2022-11-24T22:08:16.665Z,19.90
2022-11-24T22:11:21.073Z,23.33
2022-11-24T22:14:22.631Z,20.30
2022-11-24T22:17:24.126Z,21.67
2022-11-24T22:20:25.627Z,26.02
2022-11-24T22:23:27.252Z,26.43
2022-11-24T22:26:29.880Z,23.80
2022-11-24T22:29:31.417Z,25.48
2022-11-24T22:32:32.919Z,21.25
2022-11-24T22:35:34.443Z,22.73
2022-11-24T22:38:36.299Z,22.60
2022-11-24T22:41:37.838Z,21.63
2022-11-24T22:44:39.383Z,22.63
2022-11-24T22:47:40.874Z,19.42
2022-11-24T22:50:42.435Z,20.30
2022-11-24T22:53:52.382Z,18.57
2022-11-24T22:56:53.963Z,21.77
2022-11-24T22:59:55.502Z,21.58
2022-11-24T23:02:57.130Z,18.48
2022-11-24T23:06:00.600Z,21.30
2022-11-24T23:09:03.408Z,18.05
2022-11-24T23:12:05.279Z,16.55
2022-11-24T23:15:07.405Z,15.43
2022-11-24T23:18:08.913Z,19.85
2022-11-24T23:21:14.907Z,15.48
2022-11-24T23:24:16.495Z,14.23
2022-11-24T23:27:18.077Z,17.45
2022-11-24T23:30:19.876Z,19.13
2022-11-24T23:33:21.413Z,18.38
2022-11-24T23:36:23.079Z,19.80
2022-11-24T23:39:24.592Z,19.00
2022-11-24T23:42:26.094Z,19.10
2022-11-24T23:45:27.699Z,18.47
2022-11-24T23:48:29.419Z,21.80
2022-11-24T23:51:32.328Z,19.38
2022-11-24T23:54:34.064Z,19.63
2022-11-24T23:57:35.882Z,20.00
